sensor_id;sensor_type;location;lat;lon;timestamp;pressure;altitude;pressure_sealevel;temperature;humidity
48606;BME280;8482;54.396;18.590;2024-01-06T05:38:30;101258.84;;;-0.67;67.05
48606;BME280;8482;54.396;18.590;2024-01-06T05:40:56;101257.97;;;-0.66;68.58
48606;BME280;8482;54.396;18.590;2024-01-06T05:43:22;101259.66;;;-0.65;68.57
48606;BME280;8482;54.396;18.590;2024-01-06T05:45:48;101265.69;;;-0.63;68.56
48606;BME280;8482;54.396;18.590;2024-01-06T05:48:13;101268.22;;;-0.60;68.80
48606;BME280;8482;54.396;18.590;2024-01-06T05:50:39;101256.00;;;-0.58;68.33
48606;BME280;8482;54.396;18.590;2024-01-06T05:53:06;101259.41;;;-0.54;68.63
48606;BME280;8482;54.396;18.590;2024-01-06T05:55:33;101272.19;;;-0.45;68.03
48606;BME280;8482;54.396;18.590;2024-01-06T05:57:59;101274.72;;;-0.42;68.00
48606;BME280;8482;54.396;18.590;2024-01-06T06:00:26;101282.53;;;-0.40;67.35
48606;BME280;8482;54.396;18.590;2024-01-06T06:02:52;101285.94;;;-0.38;66.97
48606;BME280;8482;54.396;18.590;2024-01-06T06:05:18;101294.56;;;-0.35;66.58
48606;BME280;8482;54.396;18.590;2024-01-06T06:07:45;101297.19;;;-0.36;66.34
48606;BME280;8482;54.396;18.590;2024-01-06T06:10:12;101286.72;;;-0.35;66.61
48606;BME280;8482;54.396;18.590;2024-01-06T06:12:38;101290.13;;;-0.33;66.33
48606;BME280;8482;54.396;18.590;2024-01-06T06:15:05;101293.56;;;-0.31;66.13
48606;BME280;8482;54.396;18.590;2024-01-06T06:17:32;101294.44;;;-0.30;65.89
48606;BME280;8482;54.396;18.590;2024-01-06T06:19:59;101278.94;;;-0.36;66.14
48606;BME280;8482;54.396;18.590;2024-01-06T06:22:26;101302.28;;;-0.32;65.86
48606;BME280;8482;54.396;18.590;2024-01-06T06:25:01;101291.06;;;-0.34;65.50
48606;BME280;8482;54.396;18.590;2024-01-06T06:27:27;101301.47;;;-0.34;65.54
48606;BME280;8482;54.396;18.590;2024-01-06T06:29:54;101302.28;;;-0.32;65.61
48606;BME280;8482;54.396;18.590;2024-01-06T06:32:20;101314.31;;;-0.26;66.02
48606;BME280;8482;54.396;18.590;2024-01-06T06:34:46;101315.94;;;-0.22;65.76
48606;BME280;8482;54.396;18.590;2024-01-06T06:37:12;101325.44;;;-0.19;65.56
48606;BME280;8482;54.396;18.590;2024-01-06T06:39:38;101331.56;;;-0.20;65.02
48606;BME280;8482;54.396;18.590;2024-01-06T15:34:49;101650.53;;;0.64;67.61
48606;BME280;8482;54.396;18.590;2024-01-06T15:37:15;101660.88;;;0.68;68.72
48606;BME280;8482;54.396;18.590;2024-01-06T15:39:41;101649.53;;;0.71;68.83
48606;BME280;8482;54.396;18.590;2024-01-06T15:42:07;101658.09;;;0.76;69.47
48606;BME280;8482;54.396;18.590;2024-01-06T15:44:33;101658.88;;;0.80;69.24
48606;BME280;8482;54.396;18.590;2024-01-06T15:46:59;101666.59;;;0.86;69.03
48606;BME280;8482;54.396;18.590;2024-01-06T15:49:25;101661.31;;;0.87;68.79
48606;BME280;8482;54.396;18.590;2024-01-06T15:51:52;101665.56;;;0.91;68.71
48606;BME280;8482;54.396;18.590;2024-01-06T15:54:18;101667.25;;;0.94;67.98
48606;BME280;8482;54.396;18.590;2024-01-06T15:56:44;101667.22;;;0.96;67.81
48606;BME280;8482;54.396;18.590;2024-01-06T15:59:10;101663.78;;;0.94;67.75
48606;BME280;8482;54.396;18.590;2024-01-06T16:01:36;101668.06;;;0.98;67.37
48606;BME280;8482;54.396;18.590;2024-01-06T16:04:02;101677.56;;;1.00;67.18
48606;BME280;8482;54.396;18.590;2024-01-06T16:06:28;101678.41;;;1.01;67.02
48606;BME280;8482;54.396;18.590;2024-01-06T16:08:54;101674.06;;;1.01;67.19
48606;BME280;8482;54.396;18.590;2024-01-06T16:11:20;101675.78;;;1.02;67.56
48606;BME280;8482;54.396;18.590;2024-01-06T16:13:45;101685.28;;;1.05;67.58
48606;BME280;8482;54.396;18.590;2024-01-06T16:16:12;101679.13;;;1.07;67.84
48606;BME280;8482;54.396;18.590;2024-01-06T16:18:38;101692.16;;;1.09;67.89
48606;BME280;8482;54.396;18.590;2024-01-06T16:21:04;101693.88;;;1.10;67.81
48606;BME280;8482;54.396;18.590;2024-01-06T16:23:29;101695.69;;;1.08;67.62
48606;BME280;8482;54.396;18.590;2024-01-06T16:25:56;101707.97;;;1.04;67.15
48606;BME280;8482;54.396;18.590;2024-01-06T16:28:21;101698.41;;;1.02;66.38
48606;BME280;8482;54.396;18.590;2024-01-06T16:30:47;101705.38;;;1.03;66.11
48606;BME280;8482;54.396;18.590;2024-01-06T16:33:13;101708.03;;;1.01;65.77
48606;BME280;8482;54.396;18.590;2024-01-06T16:35:41;101708.97;;;0.99;65.65
48606;BME280;8482;54.396;18.590;2024-01-06T16:38:07;101716.94;;;0.93;65.55
48606;BME280;8482;54.396;18.590;2024-01-06T16:40:33;101712.66;;;0.90;65.73
48606;BME280;8482;54.396;18.590;2024-01-06T16:42:59;101715.28;;;0.88;65.51
48606;BME280;8482;54.396;18.590;2024-01-06T16:45:26;101718.88;;;0.84;65.66
48606;BME280;8482;54.396;18.590;2024-01-06T16:47:52;101720.66;;;0.82;65.61
48606;BME280;8482;54.396;18.590;2024-01-06T16:50:18;101725.94;;;0.79;65.53
48606;BME280;8482;54.396;18.590;2024-01-06T16:52:44;101725.13;;;0.77;65.36
48606;BME280;8482;54.396;18.590;2024-01-06T16:55:10;101726.94;;;0.73;65.04
48606;BME280;8482;54.396;18.590;2024-01-06T16:57:36;101744.34;;;0.73;65.04
48606;BME280;8482;54.396;18.590;2024-01-06T17:00:02;101753.94;;;0.72;65.25
48606;BME280;8482;54.396;18.590;2024-01-06T17:02:30;101747.94;;;0.67;65.61
48606;BME280;8482;54.396;18.590;2024-01-06T17:04:56;101752.38;;;0.65;65.78
48606;BME280;8482;54.396;18.590;2024-01-06T17:07:22;101761.94;;;0.65;65.69
48606;BME280;8482;54.396;18.590;2024-01-06T17:09:48;101765.44;;;0.65;65.99
48606;BME280;8482;54.396;18.590;2024-01-06T17:12:16;101757.59;;;0.64;65.94
48606;BME280;8482;54.396;18.590;2024-01-06T17:14:42;101761.88;;;0.68;65.95
48606;BME280;8482;54.396;18.590;2024-01-06T17:17:07;101763.59;;;0.69;65.63
48606;BME280;8482;54.396;18.590;2024-01-06T17:19:33;101757.56;;;0.67;65.54
48606;BME280;8482;54.396;18.590;2024-01-06T17:21:59;101757.50;;;0.68;65.44
48606;BME280;8482;54.396;18.590;2024-01-06T17:24:25;101764.50;;;0.68;65.41
48606;BME280;8482;54.396;18.590;2024-01-06T17:26:51;101762.81;;;0.65;65.48
48606;BME280;8482;54.396;18.590;2024-01-06T17:29:17;101769.09;;;0.56;64.78
48606;BME280;8482;54.396;18.590;2024-01-06T17:31:43;101764.75;;;0.54;65.31
48606;BME280;8482;54.396;18.590;2024-01-06T17:34:09;101771.69;;;0.56;65.80
48606;BME280;8482;54.396;18.590;2024-01-06T17:36:36;101772.59;;;0.54;65.47
48606;BME280;8482;54.396;18.590;2024-01-06T17:39:03;101780.47;;;0.52;65.41
48606;BME280;8482;54.396;18.590;2024-01-06T17:41:29;101789.19;;;0.53;65.69
48606;BME280;8482;54.396;18.590;2024-01-06T17:43:56;101790.91;;;0.52;65.98
48606;BME280;8482;54.396;18.590;2024-01-06T17:46:23;101797.88;;;0.53;65.63
48606;BME280;8482;54.396;18.590;2024-01-06T17:48:54;101804.03;;;0.51;65.80
48606;BME280;8482;54.396;18.590;2024-01-06T17:51:21;101814.47;;;0.51;65.87
48606;BME280;8482;54.396;18.590;2024-01-06T17:53:50;101820.59;;;0.48;66.22
48606;BME280;8482;54.396;18.590;2024-01-06T17:56:17;101809.38;;;0.43;66.33
48606;BME280;8482;54.396;18.590;2024-01-06T17:58:44;101822.38;;;0.46;66.29
48606;BME280;8482;54.396;18.590;2024-01-06T18:01:11;101824.13;;;0.45;66.11
48606;BME280;8482;54.396;18.590;2024-01-06T18:03:38;101824.13;;;0.45;66.07
48606;BME280;8482;54.396;18.590;2024-01-06T18:06:05;101825.91;;;0.43;66.57
48606;BME280;8482;54.396;18.590;2024-01-06T18:08:30;101816.34;;;0.44;66.44
48606;BME280;8482;54.396;18.590;2024-01-06T18:10:56;101824.06;;;0.47;66.63
48606;BME280;8482;54.396;18.590;2024-01-06T18:13:22;101824.06;;;0.47;66.56
48606;BME280;8482;54.396;18.590;2024-01-06T18:15:48;101825.00;;;0.44;66.66
48606;BME280;8482;54.396;18.590;2024-01-06T18:18:14;101825.88;;;0.45;67.11
48606;BME280;8482;54.396;18.590;2024-01-06T18:20:39;101825.94;;;0.42;66.94
48606;BME280;8482;54.396;18.590;2024-01-06T18:23:10;101824.22;;;0.41;67.25
48606;BME280;8482;54.396;18.590;2024-01-06T18:25:37;101829.41;;;0.42;67.53
48606;BME280;8482;54.396;18.590;2024-01-06T18:28:04;101825.06;;;0.41;67.51
48606;BME280;8482;54.396;18.590;2024-01-06T18:30:30;101820.69;;;0.43;67.89
48606;BME280;8482;54.396;18.590;2024-01-06T18:32:59;101824.16;;;0.44;68.16
48606;BME280;8482;54.396;18.590;2024-01-06T18:35:25;101821.56;;;0.42;68.13
48606;BME280;8482;54.396;18.590;2024-01-06T18:37:51;101823.28;;;0.45;67.98
48606;BME280;8482;54.396;18.590;2024-01-06T18:40:16;101823.28;;;0.43;67.94
48606;BME280;8482;54.396;18.590;2024-01-06T18:42:43;101833.72;;;0.45;67.96
48606;BME280;8482;54.396;18.590;2024-01-06T18:45:09;101832.00;;;0.42;67.99
48606;BME280;8482;54.396;18.590;2024-01-06T18:47:35;101825.16;;;0.38;68.09
48606;BME280;8482;54.396;18.590;2024-01-06T18:50:02;101845.09;;;0.41;67.87
48606;BME280;8482;54.396;18.590;2024-01-06T18:52:29;101843.44;;;0.37;67.84
48606;BME280;8482;54.396;18.590;2024-01-06T18:54:56;101845.16;;;0.38;67.92
48606;BME280;8482;54.396;18.590;2024-01-06T18:57:23;101839.13;;;0.34;68.03
48606;BME280;8482;54.396;18.590;2024-01-06T18:59:49;101850.50;;;0.32;67.70
48606;BME280;8482;54.396;18.590;2024-01-06T19:02:16;101831.50;;;0.23;67.85
48606;BME280;8482;54.396;18.590;2024-01-06T19:04:42;101859.25;;;0.27;67.29
48606;BME280;8482;54.396;18.590;2024-01-06T19:07:10;101844.59;;;0.20;67.01
48606;BME280;8482;54.396;18.590;2024-01-06T19:09:36;101862.03;;;0.18;66.85
48606;BME280;8482;54.396;18.590;2024-01-06T19:12:02;101868.16;;;0.17;67.11
48606;BME280;8482;54.396;18.590;2024-01-06T19:14:29;101867.31;;;0.13;67.82
48606;BME280;8482;54.396;18.590;2024-01-06T19:16:54;101875.16;;;0.13;67.97
48606;BME280;8482;54.396;18.590;2024-01-06T19:19:20;101870.81;;;0.14;67.58
48606;BME280;8482;54.396;18.590;2024-01-06T19:21:46;101872.63;;;0.10;67.25
48606;BME280;8482;54.396;18.590;2024-01-06T19:24:12;101876.91;;;0.13;67.65
48606;BME280;8482;54.396;18.590;2024-01-06T19:26:41;101878.66;;;0.12;67.42
48606;BME280;8482;54.396;18.590;2024-01-06T19:29:07;101876.06;;;0.11;67.16
48606;BME280;8482;54.396;18.590;2024-01-06T19:31:33;101874.38;;;0.08;67.19
48606;BME280;8482;54.396;18.590;2024-01-06T19:34:00;101876.16;;;0.06;67.53
48606;BME280;8482;54.396;18.590;2024-01-06T19:36:26;101882.22;;;0.07;67.52
48606;BME280;8482;54.396;18.590;2024-01-06T19:38:51;101877.88;;;0.07;67.76
48606;BME280;8482;54.396;18.590;2024-01-06T19:41:17;101883.97;;;0.06;67.57
48606;BME280;8482;54.396;18.590;2024-01-06T19:43:43;101885.69;;;0.07;67.79
48606;BME280;8482;54.396;18.590;2024-01-06T19:46:11;101893.53;;;0.07;68.10
48606;BME280;8482;54.396;18.590;2024-01-06T19:48:37;101892.66;;;0.08;68.06
48606;BME280;8482;54.396;18.590;2024-01-06T19:51:04;101893.50;;;0.09;67.37
48606;BME280;8482;54.396;18.590;2024-01-06T19:53:30;101899.59;;;0.09;67.36
48606;BME280;8482;54.396;18.590;2024-01-06T19:55:58;101897.03;;;0.06;67.54
48606;BME280;8482;54.396;18.590;2024-01-06T19:58:25;101910.88;;;0.10;67.30
48606;BME280;8482;54.396;18.590;2024-01-06T20:00:51;101901.31;;;0.09;67.58
48606;BME280;8482;54.396;18.590;2024-01-06T20:03:16;101909.16;;;0.09;67.01
48606;BME280;8482;54.396;18.590;2024-01-06T20:05:42;101907.41;;;0.09;67.10
48606;BME280;8482;54.396;18.590;2024-01-06T20:08:08;101899.59;;;0.09;66.88
48606;BME280;8482;54.396;18.590;2024-01-06T20:10:34;101896.09;;;0.09;67.29
48606;BME280;8482;54.396;18.590;2024-01-06T20:13:00;101896.09;;;0.09;67.25
48606;BME280;8482;54.396;18.590;2024-01-06T20:15:26;101896.94;;;0.11;67.05
48606;BME280;8482;54.396;18.590;2024-01-06T20:17:53;101896.94;;;0.11;66.72
48606;BME280;8482;54.396;18.590;2024-01-06T20:20:19;101894.38;;;0.08;66.51
48606;BME280;8482;54.396;18.590;2024-01-06T20:22:45;101894.44;;;0.05;66.55
48606;BME280;8482;54.396;18.590;2024-01-06T20:25:11;101891.00;;;0.03;67.10
48606;BME280;8482;54.396;18.590;2024-01-06T20:27:38;101896.22;;;0.03;67.34
48606;BME280;8482;54.396;18.590;2024-01-06T20:30:05;101911.88;;;0.01;66.92
48606;BME280;8482;54.396;18.590;2024-01-06T20:32:31;101911.88;;;0.01;66.75
48606;BME280;8482;54.396;18.590;2024-01-06T20:34:57;101907.56;;;0.00;66.35
48606;BME280;8482;54.396;18.590;2024-01-06T20:37:24;101905.84;;;-0.01;66.38
48606;BME280;8482;54.396;18.590;2024-01-06T20:39:51;101898.03;;;-0.01;66.12
48606;BME280;8482;54.396;18.590;2024-01-06T20:42:17;101898.03;;;-0.03;66.32
48606;BME280;8482;54.396;18.590;2024-01-06T20:44:43;101902.41;;;-0.03;66.27
48606;BME280;8482;54.396;18.590;2024-01-06T20:47:09;101898.03;;;-0.03;66.65
48606;BME280;8482;54.396;18.590;2024-01-06T20:49:35;101910.22;;;-0.05;66.47
48606;BME280;8482;54.396;18.590;2024-01-06T20:52:01;101899.03;;;-0.10;66.08
48606;BME280;8482;54.396;18.590;2024-01-06T20:54:28;101898.22;;;-0.13;66.30
48606;BME280;8482;54.396;18.590;2024-01-06T20:56:54;101893.00;;;-0.15;66.56
48606;BME280;8482;54.396;18.590;2024-01-06T20:59:20;101887.78;;;-0.15;66.57
48606;BME280;8482;54.396;18.590;2024-01-06T21:01:45;101902.53;;;-0.12;66.04
48606;BME280;8482;54.396;18.590;2024-01-06T21:04:11;101906.06;;;-0.15;65.40
48606;BME280;8482;54.396;18.590;2024-01-06T21:06:37;101913.91;;;-0.17;65.93
48606;BME280;8482;54.396;18.590;2024-01-06T21:09:03;101909.56;;;-0.18;65.94
48606;BME280;8482;54.396;18.590;2024-01-06T21:11:30;101913.91;;;-0.17;65.74
48606;BME280;8482;54.396;18.590;2024-01-06T21:13:56;101912.19;;;-0.19;65.42
48606;BME280;8482;54.396;18.590;2024-01-06T21:16:22;101914.84;;;-0.21;65.48
48606;BME280;8482;54.396;18.590;2024-01-06T21:18:48;101913.09;;;-0.20;65.80
48606;BME280;8482;54.396;18.590;2024-01-06T21:21:15;101923.53;;;-0.20;65.92
48606;BME280;8482;54.396;18.590;2024-01-06T21:23:44;101915.75;;;-0.23;65.60
48606;BME280;8482;54.396;18.590;2024-01-06T21:26:11;101911.41;;;-0.26;65.69
48606;BME280;8482;54.396;18.590;2024-01-06T21:28:37;101908.81;;;-0.26;65.97
48606;BME280;8482;54.396;18.590;2024-01-06T21:31:03;101915.75;;;-0.23;66.34
48606;BME280;8482;54.396;18.590;2024-01-06T21:33:29;101914.03;;;-0.24;66.17
48606;BME280;8482;54.396;18.590;2024-01-06T21:35:55;101914.06;;;-0.27;65.95
48606;BME280;8482;54.396;18.590;2024-01-06T21:38:21;101902.81;;;-0.31;66.44
48606;BME280;8482;54.396;18.590;2024-01-06T21:40:46;101911.41;;;-0.24;65.99
48606;BME280;8482;54.396;18.590;2024-01-06T21:43:13;101914.88;;;-0.24;66.42
48606;BME280;8482;54.396;18.590;2024-01-06T21:45:39;101913.16;;;-0.25;66.49
48606;BME280;8482;54.396;18.590;2024-01-06T21:48:05;101917.50;;;-0.25;66.13
48606;BME280;8482;54.396;18.590;2024-01-06T21:50:31;101921.84;;;-0.26;66.46
48606;BME280;8482;54.396;18.590;2024-01-06T21:52:59;101916.72;;;-0.31;66.34
48606;BME280;8482;54.396;18.590;2024-01-06T21:55:25;101930.59;;;-0.27;65.93
48606;BME280;8482;54.396;18.590;2024-01-06T21:57:51;101934.00;;;-0.25;66.18
48606;BME280;8482;54.396;18.590;2024-01-06T22:00:17;101933.13;;;-0.24;65.98
48606;BME280;8482;54.396;18.590;2024-01-06T22:02:46;101934.84;;;-0.23;65.77
48606;BME280;8482;54.396;18.590;2024-01-06T22:05:16;101941.78;;;-0.22;65.48
48606;BME280;8482;54.396;18.590;2024-01-06T22:07:42;101937.47;;;-0.23;65.27
48606;BME280;8482;54.396;18.590;2024-01-06T22:10:08;101939.22;;;-0.25;64.95
48606;BME280;8482;54.396;18.590;2024-01-06T22:12:34;101942.75;;;-0.27;65.59
48606;BME280;8482;54.396;18.590;2024-01-06T22:15:00;101951.47;;;-0.32;65.79
48606;BME280;8482;54.396;18.590;2024-01-06T22:17:26;101949.75;;;-0.33;65.15
48606;BME280;8482;54.396;18.590;2024-01-06T22:19:52;101953.28;;;-0.35;64.59
48606;BME280;8482;54.396;18.590;2024-01-06T22:22:19;101954.19;;;-0.38;64.68
48606;BME280;8482;54.396;18.590;2024-01-06T22:24:46;101958.56;;;-0.40;64.14
48606;BME280;8482;54.396;18.590;2024-01-06T22:27:11;101963.88;;;-0.48;63.70
48606;BME280;8482;54.396;18.590;2024-01-06T22:29:37;101957.81;;;-0.48;63.60
